Country
Station

 

Weather  for  Tivat  -  Yugoslavia    Yugoslavia

  
20 °C (68 °F)
    
 
 

Current METAR for Tivat is :

LYTV 230300Z 00000KT CAVOK 20/15 Q1016 NOSIG

 

This is a report for Tivat - Yugoslavia.
 
The report was made 18 minutes ago, at 03:00 UTC .
The wind was calm.
 
The temperature was 20 °C (68 °F), with a dew-point at 15 °C (59 °F).
The atmospheric pressure was 1016 hPa (30.00 inHg).
The relative humidity was 72.9%.
 
There were no clouds below 1500 meter (5000 feet) and no cumulonimbus clouds.
 
The overall visibility was greater than 10 kilometers (6.2 miles).
 

 
 
 
 

Country :   A   B   C   D   E   F   G   H   I   J   K   L   M   N   O   P   Q   R   S   T   U   V   W   Y   Z

 

Site Info  |  Disclaimer  |  Credits  |  Privacy
Contact us  |  Add to favorites
© 2013-2019 METARs - All rights reserved